OMDBFVHA

Guest
Details From OMDB - Dubai Intl
To FVHA - Harare Intl
Flight Number -
Tags Generated
Created
Modified
Stats Distance 2,958 nm / 5,478 km
Max Altitude 0 ft / 0 m
Waypoints 6
Social Downloads 1
Likes 0
Share VATSIM

Download

Looking for another format? Having issues loading an existing format? Contact us
Advertisement - Login to hide

Notes

Generated

Route

OMDB IMPOS TAVLI ELEPA VSB FVHA

ID Type Via Altitude Latitude Longitude Leg Dist Tot Dist Heading (true) Name
O OMDB APT - 0 ft / 0 m 25.26213˚ 55.34757˚ - 0 nm - -
IMPOS FIX - 0 ft / 0 m 18.52694˚ 51.31333˚ 462 nm 462 nm 210° / 208° -
TAVLI FIX - 0 ft / 0 m 15.58389˚ 49.57500˚ 202 nm 665 nm 210° / 209° -
ELEPA FIX - 0 ft / 0 m -14.94584˚ 33.07641˚ 2078 nm 2744 nm 209° / 209° -
VSB VOR - 0 ft / 0 m -17.90718˚ 31.11854˚ 210 nm 2954 nm 212° / 213° HARARE VOR-DME
O FVHA APT - 0 ft / 0 m -17.94688˚ 31.07709˚ 3 nm 2958 nm 225° / 225° -

Altitude Profile

Advertisement - Login to hide

Weather


0- 5 10 15 20 25 30 35+ Temperature / ° C

Clouds and Precipitation
Forecast for 2017-12-14 00:00 UTC. Updated 2 hours ago

Ground ~20,000 ft ~40,000 ft Winds

OMDB

Details ICAO OMDB (DXB)
Name DUBAI INTL
Region United Arab Emirates
Timezone Asia/Dubai (UTC+4.0)
Stats Elevation 62 ft / 19 m (AMSL)
Location 25.254912° 55.364260°
Runways 2
Magnetic Variation 2.047° E

METAR

OMDB 140100Z 04004G18KT 280V080 CAVOK 18/08 Q1017 NOSIG

Decode

TAF

TAF OMDB 132301Z 1400/1506 08008KT 8000 NSC BECMG 1404/1406 17010KT BECMG 1409/1411 35013KT BECMG 1414/1416 15008KT

Decode

Departure Runways

ID Width Length Bearing (true) Bearing (mag) Surface Threshold Offset Overrun Length
12L 197 ft / 60 m 13,124 ft / 4,000 m 121.49° 119.44° Asphalt 1,312 ft / 400 m 395 ft / 120 m
12R 151 ft / 46 m 13,139 ft / 4,005 m 121.48° 119.43° Asphalt 394 ft / 120 m 197 ft / 60 m
30L 151 ft / 46 m 13,139 ft / 4,005 m 301.50° 299.45° Asphalt 2,953 ft / 900 m 197 ft / 60 m
30R 197 ft / 60 m 13,124 ft / 4,000 m 301.51° 299.46° Asphalt 0 ft / 0 m 395 ft / 120 m

FVHA

Details ICAO FVHA (HRE)
Name HARARE INTL
Region Zimbabwe
Timezone Africa/Harare (UTC+2.0)
Stats Elevation 4,887 ft / 1,490 m (AMSL)
Location -17.931806° 31.092848°
Runways 1
Magnetic Variation 8.522° W

METAR

FVHA 140100Z 08004KT CAVOK 18/18 Q1019 NOSIG

Decode

TAF

Not found

Destination Runways

ID Width Length Bearing (true) Bearing (mag) Surface Threshold Offset Overrun Length
05 151 ft / 46 m 15,517 ft / 4,730 m 44.85° 53.37° Asphalt 0 ft / 0 m 320 ft / 98 m
23 151 ft / 46 m 15,517 ft / 4,730 m 224.84° 233.36° Asphalt 3,630 ft / 1,106 m 295 ft / 90 m

Approach Navaids

Runway Type Ident Frequency Range Bearing (true) Bearing (mag) Slope Elevation
05 Localiser ISB 110.30 MHz 18 nm / 33 km 44.81° 53.34° - 4,887 ft / 1,490 m (AMSL)
05 Glidescope ISB 110.30 MHz 10 nm / 19 km 44.84° 53.37° 3.00° 4,887 ft / 1,490 m (AMSL)

Popular Alternatives